createdAt,value
2017-01-05T00:00:47.039Z,-1.29
2017-01-05T00:01:57.303Z,-1.25
2017-01-05T00:03:07.610Z,-1.23
2017-01-05T00:04:17.918Z,-1.2
2017-01-05T00:05:28.298Z,-1.25
2017-01-05T00:06:37.747Z,-1.31
2017-01-05T00:07:47.603Z,-1.29
2017-01-05T00:08:57.891Z,-1.36
2017-01-05T00:10:08.181Z,-1.28
2017-01-05T00:11:18.025Z,-1.28
2017-01-05T00:12:27.882Z,-1.26
2017-01-05T00:13:38.173Z,-1.23
2017-01-05T00:14:48.017Z,-1.07
2017-01-05T00:15:58.370Z,-1.1
2017-01-05T00:17:08.234Z,-1.1
2017-01-05T00:18:18.494Z,-1.16
2017-01-05T00:19:28.332Z,-1.14
2017-01-05T00:20:38.635Z,-1.18
2017-01-05T00:21:48.473Z,-1.16
2017-01-05T00:22:58.735Z,-1.21
2017-01-05T00:24:08.776Z,-1.2
2017-01-05T00:25:19.086Z,-1.21
2017-01-05T00:26:28.540Z,-1.18
2017-01-05T00:27:38.991Z,-1.07
2017-01-05T00:28:49.329Z,-1.14
2017-01-05T00:29:59.184Z,-1.09
2017-01-05T00:31:09.406Z,-1.12
2017-01-05T00:32:19.036Z,-1.14
2017-01-05T00:33:29.292Z,-1.14
2017-01-05T00:34:39.558Z,-1.14
2017-01-05T00:35:49.851Z,-1.12
2017-01-05T00:37:00.091Z,-1.09
2017-01-05T00:38:10.029Z,-1.12
2017-01-05T00:39:20.315Z,-1.23
2017-01-05T00:40:29.860Z,-1.12
2017-01-05T00:41:40.112Z,-1.13
2017-01-05T00:42:50.511Z,-1.07
2017-01-05T00:44:00.807Z,-1.1
2017-01-05T00:45:10.723Z,-1.07
2017-01-05T00:46:21.003Z,-1.05
2017-01-05T00:47:30.883Z,-1.12
2017-01-05T00:48:41.160Z,-1.26
2017-01-05T00:49:51.450Z,-1.2
2017-01-05T00:51:01.290Z,-1.23
2017-01-05T00:52:11.688Z,-1.23
2017-01-05T00:53:21.264Z,-1.2
2017-01-05T00:54:31.571Z,-1.29
2017-01-05T00:55:41.811Z,-1.25
2017-01-05T00:56:52.101Z,-1.29
2017-01-05T00:58:02.436Z,-1.23
2017-01-05T00:59:12.289Z,-1.23
2017-01-05T01:00:22.167Z,-1.12
2017-01-05T01:01:32.426Z,-1.23
2017-01-05T01:02:42.249Z,-1.23
2017-01-05T01:03:51.672Z,-1.2
2017-01-05T01:05:01.911Z,-1.23
2017-01-05T01:06:11.754Z,-1.23
2017-01-05T01:07:22.012Z,-1.26
2017-01-05T01:08:32.280Z,-1.26
2017-01-05T01:09:42.519Z,-1.29
2017-01-05T01:10:52.485Z,-1.25
2017-01-05T01:12:02.331Z,-1.39
2017-01-05T01:13:12.579Z,-1.44
2017-01-05T01:14:22.931Z,-1.39
2017-01-05T01:15:33.318Z,-1.31
2017-01-05T01:16:42.758Z,-1.25
2017-01-05T01:17:52.638Z,-1.32
2017-01-05T01:19:03.037Z,-1.28
2017-01-05T01:20:13.512Z,-1.29
2017-01-05T01:21:23.767Z,-1.26
2017-01-05T01:22:34.005Z,-1.29
2017-01-05T01:23:44.367Z,-1.29
2017-01-05T01:24:54.709Z,-1.25
2017-01-05T01:26:05.078Z,-1.28
2017-01-05T01:27:14.964Z,-1.26
2017-01-05T01:28:25.208Z,-1.31
2017-01-05T01:29:34.648Z,-1.26
2017-01-05T01:30:44.904Z,-1.28
2017-01-05T01:31:54.381Z,-1.28
2017-01-05T01:33:04.735Z,-1.29
2017-01-05T01:34:14.600Z,-1.28
2017-01-05T01:35:24.984Z,-1.25
2017-01-05T01:36:35.377Z,-1.16
2017-01-05T01:37:45.643Z,-1.21
2017-01-05T01:38:55.909Z,-1.28
2017-01-05T01:40:06.192Z,-1.16
2017-01-05T01:41:16.514Z,-1.23
2017-01-05T01:42:26.392Z,-1.21
2017-01-05T01:43:36.249Z,-1.2
2017-01-05T01:44:46.514Z,-1.23
2017-01-05T01:45:56.850Z,-1.14
2017-01-05T01:47:06.702Z,-1.12
2017-01-05T01:48:16.597Z,-1.1
2017-01-05T01:49:26.859Z,-1.23
2017-01-05T01:50:36.773Z,-1.23
2017-01-05T01:51:47.030Z,-1.14
2017-01-05T01:52:57.285Z,-1.23
2017-01-05T01:54:07.161Z,-1.18
2017-01-05T01:55:17.470Z,-1.13
2017-01-05T01:56:27.768Z,-1.1
2017-01-05T01:57:38.018Z,-1.12
2017-01-05T01:58:47.869Z,-1.21
2017-01-05T01:59:57.902Z,-1.12
2017-01-05T02:01:07.757Z,-1.12
2017-01-05T02:02:17.610Z,-1.16
2017-01-05T02:03:27.895Z,-1.12
2017-01-05T02:04:37.847Z,-1.13
2017-01-05T02:05:47.728Z,-1.1
2017-01-05T02:06:58.033Z,-1.06
2017-01-05T02:08:07.914Z,-1.14
2017-01-05T02:09:17.795Z,-1.09
2017-01-05T02:10:28.064Z,-1.12
2017-01-05T02:11:38.361Z,-1.13
2017-01-05T02:12:48.222Z,-1.06
2017-01-05T02:13:58.542Z,-1.09
2017-01-05T02:15:08.864Z,-1
2017-01-05T02:16:18.714Z,-1.12
2017-01-05T02:17:29.038Z,-1.1
2017-01-05T02:18:38.966Z,-1.12
2017-01-05T02:19:48.481Z,-1
2017-01-05T02:20:58.323Z,-1
2017-01-05T02:22:08.590Z,-1.06
2017-01-05T02:23:18.921Z,-1.02
2017-01-05T02:24:29.178Z,-0.96
2017-01-05T02:25:39.077Z,-1
2017-01-05T02:26:49.329Z,-0.95
2017-01-05T02:27:59.573Z,-0.96
2017-01-05T02:29:09.418Z,-1.06
2017-01-05T02:30:19.753Z,-0.96
2017-01-05T02:31:29.586Z,-1.12
2017-01-05T02:32:39.440Z,-1.05
2017-01-05T02:33:49.684Z,-1.05
2017-01-05T02:34:59.525Z,-1.07
2017-01-05T02:36:09.621Z,-1.13
2017-01-05T02:37:19.573Z,-1.05
2017-01-05T02:38:29.827Z,-1.06
2017-01-05T02:39:40.072Z,-1.05
2017-01-05T02:40:50.312Z,-1.06
2017-01-05T02:42:00.159Z,-1.03
2017-01-05T02:43:10.003Z,-1
2017-01-05T02:44:20.270Z,-0.98
2017-01-05T02:45:30.523Z,-1.1
2017-01-05T02:46:39.966Z,-1.02
2017-01-05T02:47:49.049Z,-0.96
2017-01-05T02:48:59.345Z,-0.98
2017-01-05T02:50:09.656Z,-0.92
2017-01-05T02:51:20.010Z,-0.98
2017-01-05T02:52:29.939Z,-1.09
2017-01-05T02:53:40.187Z,-1.02
2017-01-05T02:54:50.102Z,-1.06
2017-01-05T02:56:00.023Z,-1.1
2017-01-05T02:57:10.333Z,-1.06
2017-01-05T02:58:20.690Z,-0.94
2017-01-05T02:59:30.690Z,-0.95
2017-01-05T03:00:41.007Z,-0.89
2017-01-05T03:01:51.271Z,-1.02
2017-01-05T03:03:01.115Z,-1
2017-01-05T03:04:11.467Z,-0.98
2017-01-05T03:05:21.881Z,-0.95
2017-01-05T03:06:32.185Z,-0.98
2017-01-05T03:07:42.044Z,-0.98
2017-01-05T03:08:52.397Z,-0.95
2017-01-05T03:10:01.947Z,-1
2017-01-05T03:11:11.854Z,-1.07
2017-01-05T03:12:22.283Z,-1.06
2017-01-05T03:13:31.336Z,-1.09
2017-01-05T03:14:41.665Z,-1.06
2017-01-05T03:15:51.529Z,-1.06
2017-01-05T03:17:01.480Z,-1.03
2017-01-05T03:18:11.788Z,-1.07
2017-01-05T03:19:22.048Z,-1
2017-01-05T03:20:32.291Z,-1.06
2017-01-05T03:21:42.771Z,-1.06
2017-01-05T03:22:53.017Z,-1.06
2017-01-05T03:24:02.898Z,-1.07
2017-01-05T03:25:13.157Z,-1.1
2017-01-05T03:26:23.411Z,-1.03
2017-01-05T03:27:33.308Z,-1.1
2017-01-05T03:28:43.547Z,-1.13
2017-01-05T03:29:53.446Z,-1.06
2017-01-05T03:31:03.291Z,-1.05
2017-01-05T03:32:13.128Z,-1.07
2017-01-05T03:33:22.627Z,-1.09
2017-01-05T03:34:32.873Z,-0.98
2017-01-05T03:35:43.196Z,-0.96
2017-01-05T03:36:53.446Z,-0.95
2017-01-05T03:38:03.735Z,-1.06
2017-01-05T03:39:13.973Z,-0.95
2017-01-05T03:40:23.821Z,-1.07
2017-01-05T03:41:34.243Z,-0.95
2017-01-05T03:42:44.505Z,-0.96
2017-01-05T03:43:54.798Z,-0.95
2017-01-05T03:45:05.173Z,-0.92
2017-01-05T03:46:15.459Z,-0.94
2017-01-05T03:47:25.699Z,-1.03
2017-01-05T03:48:35.939Z,-1.02
2017-01-05T03:49:46.262Z,-1
2017-01-05T03:50:56.518Z,-0.98
2017-01-05T03:52:06.755Z,-0.85
2017-01-05T03:53:16.697Z,-1.02
2017-01-05T03:54:26.959Z,-1.03
2017-01-05T03:55:36.829Z,-0.96
2017-01-05T03:56:47.136Z,-0.91
2017-01-05T03:57:57.408Z,-0.94
2017-01-05T03:59:07.701Z,-1.03
2017-01-05T04:00:17.532Z,-0.96
2017-01-05T04:01:27.367Z,-0.94
2017-01-05T04:02:37.216Z,-0.94
2017-01-05T04:03:46.457Z,-0.92
2017-01-05T04:04:56.330Z,-1.02
2017-01-05T04:06:06.720Z,-0.88
2017-01-05T04:07:17.009Z,-0.98
2017-01-05T04:08:27.299Z,-0.95
2017-01-05T04:09:37.216Z,-0.89
2017-01-05T04:10:47.536Z,-0.85
2017-01-05T04:11:57.427Z,-0.96
2017-01-05T04:13:07.673Z,-0.89
2017-01-05T04:14:17.911Z,-0.88
2017-01-05T04:15:27.846Z,-0.89
2017-01-05T04:16:38.127Z,-0.89
2017-01-05T04:17:48.371Z,-0.88
2017-01-05T04:18:58.662Z,-0.92
2017-01-05T04:20:08.973Z,-0.91
2017-01-05T04:21:18.873Z,-0.87
2017-01-05T04:22:29.103Z,-0.87
2017-01-05T04:23:38.610Z,-0.84
2017-01-05T04:24:48.503Z,-0.82
2017-01-05T04:25:58.789Z,-0.82
2017-01-05T04:27:08.648Z,-0.82
2017-01-05T04:28:18.544Z,-0.88
2017-01-05T04:29:28.878Z,-0.87
2017-01-05T04:30:39.131Z,-0.92
2017-01-05T04:31:49.008Z,-0.95
2017-01-05T04:32:58.846Z,-0.89
2017-01-05T04:34:09.222Z,-0.88
2017-01-05T04:35:19.523Z,-0.89
2017-01-05T04:36:29.388Z,-0.87
2017-01-05T04:37:39.256Z,-0.95
2017-01-05T04:38:49.085Z,-1.02
2017-01-05T04:39:58.925Z,-0.95
2017-01-05T04:41:08.518Z,-0.84
2017-01-05T04:42:18.830Z,-0.92
2017-01-05T04:43:29.099Z,-0.89
2017-01-05T04:44:39.339Z,-0.91
2017-01-05T04:45:49.588Z,-0.84
2017-01-05T04:46:59.938Z,-0.92
2017-01-05T04:48:10.193Z,-0.84
2017-01-05T04:49:19.322Z,-0.91
2017-01-05T04:50:29.164Z,-0.85
2017-01-05T04:51:39.447Z,-0.94
2017-01-05T04:52:48.909Z,-0.92
2017-01-05T04:53:58.893Z,-0.96
2017-01-05T04:55:09.188Z,-0.89
2017-01-05T04:56:19.060Z,-0.94
2017-01-05T04:57:28.929Z,-0.91
2017-01-05T04:58:39.194Z,-0.96
2017-01-05T04:59:49.748Z,-0.94
2017-01-05T05:00:59.993Z,-0.94
2017-01-05T05:02:10.285Z,-0.98
2017-01-05T05:03:20.284Z,-0.94
2017-01-05T05:04:30.650Z,-0.98
2017-01-05T05:05:40.963Z,-1.09
2017-01-05T05:06:50.827Z,-1.07
2017-01-05T05:08:01.108Z,-1.07
2017-01-05T05:09:11.478Z,-1.06
2017-01-05T05:10:21.373Z,-1.16
2017-01-05T05:11:31.255Z,-1.18
2017-01-05T05:12:41.491Z,-1.25
2017-01-05T05:13:51.783Z,-1.25
2017-01-05T05:15:02.034Z,-1.23
2017-01-05T05:16:12.324Z,-1.25
2017-01-05T05:17:21.825Z,-1.26
2017-01-05T05:18:32.218Z,-1.21
2017-01-05T05:19:42.138Z,-1.26
2017-01-05T05:20:52.423Z,-1.25
2017-01-05T05:22:02.301Z,-1.18
2017-01-05T05:23:12.631Z,-1.2
2017-01-05T05:24:22.969Z,-1.25
2017-01-05T05:25:32.011Z,-1.28
2017-01-05T05:26:42.265Z,-1.23
2017-01-05T05:27:52.539Z,-1.28
2017-01-05T05:29:02.444Z,-1.28
2017-01-05T05:30:12.794Z,-1.25
2017-01-05T05:31:23.099Z,-1.25
2017-01-05T05:32:32.545Z,-1.26
2017-01-05T05:33:42.782Z,-1.18
2017-01-05T05:34:53.047Z,-1.25
2017-01-05T05:36:02.963Z,-1.29
2017-01-05T05:37:12.849Z,-1.25
2017-01-05T05:38:22.761Z,-1.25
2017-01-05T05:39:32.218Z,-1.28
2017-01-05T05:40:42.128Z,-1.28
2017-01-05T05:41:51.982Z,-1.28
2017-01-05T05:43:02.359Z,-1.23
2017-01-05T05:44:11.850Z,-1.31
2017-01-05T05:45:22.137Z,-1.28
2017-01-05T05:46:31.588Z,-1.33
2017-01-05T05:47:41.454Z,-1.32
2017-01-05T05:48:51.296Z,-1.29
2017-01-05T05:50:01.658Z,-1.39
2017-01-05T05:51:11.486Z,-1.42
2017-01-05T05:52:21.759Z,-1.44
2017-01-05T05:53:32.147Z,-1.39
2017-01-05T05:54:42.472Z,-1.46
2017-01-05T05:55:52.772Z,-1.46
2017-01-05T05:57:02.698Z,-1.46
2017-01-05T05:58:12.545Z,-1.43
2017-01-05T05:59:22.833Z,-1.62
2017-01-05T06:00:32.701Z,-1.62
2017-01-05T06:01:42.551Z,-1.68
2017-01-05T06:02:52.798Z,-1.64
2017-01-05T06:04:03.049Z,-1.52
2017-01-05T06:05:13.409Z,-1.54
2017-01-05T06:06:23.765Z,-1.52
2017-01-05T06:07:33.718Z,-1.47
2017-01-05T06:08:43.622Z,-1.54
2017-01-05T06:09:53.519Z,-1.43
2017-01-05T06:11:03.796Z,-1.4
2017-01-05T06:12:13.635Z,-1.43
2017-01-05T06:13:23.547Z,-1.47
2017-01-05T06:14:33.459Z,-1.42
2017-01-05T06:15:43.326Z,-1.47
2017-01-05T06:16:53.580Z,-1.36
2017-01-05T06:18:03.489Z,-1.46
2017-01-05T06:19:13.452Z,-1.43
2017-01-05T06:20:23.307Z,-1.42
2017-01-05T06:21:33.578Z,-1.44
2017-01-05T06:22:43.832Z,-1.47
2017-01-05T06:23:53.828Z,-1.46
2017-01-05T06:25:04.099Z,-1.58
2017-01-05T06:26:14.070Z,-1.67
2017-01-05T06:27:23.946Z,-1.64
2017-01-05T06:28:34.217Z,-1.64
2017-01-05T06:29:43.757Z,-1.6
2017-01-05T06:30:53.655Z,-1.57
2017-01-05T06:32:03.911Z,-1.62
2017-01-05T06:33:13.922Z,-1.62
2017-01-05T06:34:24.291Z,-1.54
2017-01-05T06:35:34.541Z,-1.54
2017-01-05T06:36:45.004Z,-1.5
2017-01-05T06:37:55.267Z,-1.5
2017-01-05T06:39:05.504Z,-1.53
2017-01-05T06:40:15.838Z,-1.61
2017-01-05T06:41:26.156Z,-1.53
2017-01-05T06:42:35.606Z,-1.5
2017-01-05T06:43:45.457Z,-1.52
2017-01-05T06:44:55.712Z,-1.49
2017-01-05T06:46:05.311Z,-1.54
2017-01-05T06:47:15.624Z,-1.64
2017-01-05T06:48:25.884Z,-1.62
2017-01-05T06:49:36.163Z,-1.62
2017-01-05T06:50:46.516Z,-1.6
2017-01-05T06:51:56.848Z,-1.61
2017-01-05T06:53:06.284Z,-1.6
2017-01-05T06:54:16.541Z,-1.58
2017-01-05T06:55:26.005Z,-1.7
2017-01-05T06:56:36.246Z,-1.72
2017-01-05T06:57:46.655Z,-1.68
2017-01-05T06:58:56.567Z,-1.65
2017-01-05T07:00:06.815Z,-1.67
2017-01-05T07:01:16.838Z,-1.68
2017-01-05T07:02:27.100Z,-1.67
2017-01-05T07:03:37.347Z,-1.54
2017-01-05T07:04:47.686Z,-1.67
2017-01-05T07:05:57.992Z,-1.57
2017-01-05T07:07:08.272Z,-1.67
2017-01-05T07:08:18.161Z,-1.58
2017-01-05T07:09:28.003Z,-1.62
2017-01-05T07:10:38.281Z,-1.61
2017-01-05T07:11:48.137Z,-1.62
2017-01-05T07:12:58.402Z,-1.61
2017-01-05T07:14:08.385Z,-1.57
2017-01-05T07:15:18.738Z,-1.67
2017-01-05T07:16:29.216Z,-1.7
2017-01-05T07:17:38.703Z,-1.7
2017-01-05T07:18:48.585Z,-1.68
2017-01-05T07:19:58.452Z,-1.67
2017-01-05T07:21:08.821Z,-1.71
2017-01-05T07:22:19.155Z,-1.61
2017-01-05T07:23:29.034Z,-1.58
2017-01-05T07:24:39.326Z,-1.58
2017-01-05T07:25:49.573Z,-1.57
2017-01-05T07:26:58.700Z,-1.5
2017-01-05T07:28:08.593Z,-1.5
2017-01-05T07:29:19.014Z,-1.46
2017-01-05T07:30:28.862Z,-1.46
2017-01-05T07:31:39.277Z,-1.49
2017-01-05T07:32:49.561Z,-1.52
2017-01-05T07:33:59.809Z,-1.52
2017-01-05T07:35:09.664Z,-1.57
2017-01-05T07:36:19.278Z,-1.62
2017-01-05T07:37:29.573Z,-1.54
2017-01-05T07:38:39.842Z,-1.72
2017-01-05T07:39:49.390Z,-1.68
2017-01-05T07:40:59.699Z,-1.7
2017-01-05T07:42:09.159Z,-1.68
2017-01-05T07:43:19.414Z,-1.7
2017-01-05T07:44:28.852Z,-1.68
2017-01-05T07:45:38.723Z,-1.67
2017-01-05T07:46:48.593Z,-1.68
2017-01-05T07:47:58.866Z,-1.7
2017-01-05T07:49:08.712Z,-1.76
2017-01-05T07:50:18.159Z,-1.65
2017-01-05T07:51:28.004Z,-1.68
2017-01-05T07:52:38.277Z,-1.7
2017-01-05T07:53:48.592Z,-1.64
2017-01-05T07:54:58.909Z,-1.7
2017-01-05T07:56:09.278Z,-1.62
2017-01-05T07:57:19.201Z,-1.54
2017-01-05T07:58:29.080Z,-1.65
2017-01-05T07:59:39.324Z,-1.67
2017-01-05T08:00:49.193Z,-1.64
2017-01-05T08:01:59.032Z,-1.64
2017-01-05T08:03:08.913Z,-1.65
2017-01-05T08:04:19.193Z,-1.57
2017-01-05T08:05:29.523Z,-1.57
2017-01-05T08:06:39.851Z,-1.5
2017-01-05T08:07:49.359Z,-1.49
2017-01-05T08:08:59.274Z,-1.43
2017-01-05T08:10:09.540Z,-1.47
2017-01-05T08:11:19.400Z,-1.42
2017-01-05T08:12:29.656Z,-1.42
2017-01-05T08:13:39.960Z,-1.36
2017-01-05T08:14:49.886Z,-1.43
2017-01-05T08:16:00.194Z,-1.46
2017-01-05T08:17:10.454Z,-1.49
2017-01-05T08:18:20.706Z,-1.47
2017-01-05T08:19:30.975Z,-1.5
2017-01-05T08:20:41.279Z,-1.54
2017-01-05T08:21:51.573Z,-1.46
2017-01-05T08:23:01.823Z,-1.52
2017-01-05T08:24:12.108Z,-1.42
2017-01-05T08:25:21.981Z,-1.52
2017-01-05T08:26:31.894Z,-1.49
2017-01-05T08:27:42.218Z,-1.54
2017-01-05T08:28:52.471Z,-1.49
2017-01-05T08:30:02.325Z,-1.47
2017-01-05T08:31:12.603Z,-1.5
2017-01-05T08:32:22.883Z,-1.46
2017-01-05T08:33:32.766Z,-1.52
2017-01-05T08:34:43.021Z,-1.47
2017-01-05T08:35:52.479Z,-1.44
2017-01-05T08:37:02.790Z,-1.46
2017-01-05T08:38:13.070Z,-1.46
2017-01-05T08:39:23.353Z,-1.4
2017-01-05T08:40:33.231Z,-1.36
2017-01-05T08:41:43.509Z,-1.44
2017-01-05T08:42:53.874Z,-1.43
2017-01-05T08:44:04.183Z,-1.36
2017-01-05T08:45:14.029Z,-1.49
2017-01-05T08:46:24.292Z,-1.52
2017-01-05T08:47:34.578Z,-1.42
2017-01-05T08:48:44.111Z,-1.46
2017-01-05T08:49:54.365Z,-1.5
2017-01-05T08:51:04.624Z,-1.49
2017-01-05T08:52:14.918Z,-1.64
2017-01-05T08:53:24.915Z,-1.67
2017-01-05T08:54:34.358Z,-1.67
2017-01-05T08:55:44.677Z,-1.64
2017-01-05T08:56:54.984Z,-1.65
2017-01-05T08:58:04.912Z,-1.65
2017-01-05T08:59:14.744Z,-1.78
2017-01-05T09:00:56.735Z,-1.65
2017-01-05T09:02:06.214Z,-1.68
2017-01-05T09:03:16.105Z,-1.68
2017-01-05T09:04:26.025Z,-1.68
2017-01-05T09:05:36.320Z,-1.68
2017-01-05T09:06:46.199Z,-1.71
2017-01-05T09:07:56.062Z,-1.7
2017-01-05T09:09:05.954Z,-1.76
2017-01-05T09:10:16.228Z,-1.68
2017-01-05T09:11:26.111Z,-1.65
2017-01-05T09:12:36.423Z,-1.64
2017-01-05T09:13:46.267Z,-1.7
2017-01-05T09:14:55.720Z,-1.79
2017-01-05T09:16:05.974Z,-1.86
2017-01-05T09:17:15.872Z,-1.9
2017-01-05T09:18:26.129Z,-2.01
2017-01-05T09:19:36.372Z,-1.98
2017-01-05T09:20:46.628Z,-2.01
2017-01-05T09:21:56.147Z,-2.01
2017-01-05T09:23:06.017Z,-1.96
2017-01-05T09:24:15.515Z,-1.97
2017-01-05T09:25:25.831Z,-1.85
2017-01-05T09:26:36.084Z,-1.85
2017-01-05T09:27:46.372Z,-1.85
2017-01-05T09:28:56.212Z,-1.79
2017-01-05T09:30:05.687Z,-1.72
2017-01-05T09:31:15.535Z,-1.7
2017-01-05T09:32:25.395Z,-1.71
2017-01-05T09:33:35.265Z,-1.7
2017-01-05T09:34:45.525Z,-1.72
2017-01-05T09:35:55.385Z,-1.57
2017-01-05T09:37:05.682Z,-1.52
2017-01-05T09:38:16.063Z,-1.35
2017-01-05T09:39:25.937Z,-1.44
2017-01-05T09:40:36.184Z,-1.35
2017-01-05T09:41:46.545Z,-1.23
2017-01-05T09:42:56.507Z,-1.25
2017-01-05T09:44:06.840Z,-1.09
2017-01-05T09:45:17.100Z,-1.1
2017-01-05T09:46:26.977Z,-1.06
2017-01-05T09:47:37.283Z,-1.07
2017-01-05T09:48:46.825Z,-1.05
2017-01-05T09:49:56.680Z,-1.05
2017-01-05T09:51:07.053Z,-0.98
2017-01-05T09:52:16.973Z,-0.87
2017-01-05T09:53:27.231Z,-0.88
2017-01-05T09:54:37.558Z,-0.89
2017-01-05T09:55:47.800Z,-0.88
2017-01-05T09:56:58.100Z,-0.89
2017-01-05T09:58:07.953Z,-0.91
2017-01-05T09:59:17.793Z,-0.89
2017-01-05T10:00:28.069Z,-0.82
2017-01-05T10:01:38.325Z,-0.78
2017-01-05T10:02:47.798Z,-0.6
2017-01-05T10:03:57.640Z,-0.55
2017-01-05T10:05:07.516Z,-0.52
2017-01-05T10:06:17.836Z,-0.48
2017-01-05T10:07:28.135Z,-0.51
2017-01-05T10:08:38.383Z,-0.45
2017-01-05T10:09:48.686Z,-0.28
2017-01-05T10:10:58.526Z,-0.16
2017-01-05T10:12:08.388Z,0.22
2017-01-05T10:13:18.245Z,0.11
2017-01-05T10:14:28.496Z,0.16
2017-01-05T10:15:37.999Z,0.22
2017-01-05T10:16:47.447Z,0.49
2017-01-05T10:17:57.706Z,0.42
2017-01-05T10:19:07.998Z,0.84
2017-01-05T10:20:18.243Z,0.93
2017-01-05T10:21:28.534Z,0.9
2017-01-05T10:22:38.399Z,0.93
2017-01-05T10:23:48.703Z,0.92
2017-01-05T10:24:59.031Z,0.79
2017-01-05T10:26:09.348Z,0.79
2017-01-05T10:27:19.601Z,1.28
2017-01-05T10:28:29.464Z,1.55
2017-01-05T10:29:39.356Z,1.82
2017-01-05T10:30:49.241Z,2.15
2017-01-05T10:31:59.091Z,2.41
2017-01-05T10:33:09.403Z,2.88
2017-01-05T10:34:19.701Z,2.55
2017-01-05T10:35:29.952Z,2.78
2017-01-05T10:36:39.817Z,2.96
2017-01-05T10:37:49.343Z,3.16
2017-01-05T10:38:58.806Z,3.26
2017-01-05T10:40:09.161Z,3.39
2017-01-05T10:41:19.043Z,3.19
2017-01-05T10:42:28.886Z,3.31
2017-01-05T10:43:38.755Z,3.26
2017-01-05T10:44:47.791Z,3.5
2017-01-05T10:45:57.675Z,3.25
2017-01-05T10:47:07.986Z,3.07
2017-01-05T10:48:18.255Z,2.85
2017-01-05T10:49:28.573Z,2.56
2017-01-05T10:50:38.940Z,2.44
2017-01-05T10:51:48.834Z,2.3
2017-01-05T10:52:58.795Z,2.3
2017-01-05T10:54:08.674Z,2.52
2017-01-05T10:55:18.993Z,2.59
2017-01-05T10:56:29.259Z,2.79
2017-01-05T10:57:39.151Z,2.94
2017-01-05T10:58:49.003Z,3
2017-01-05T10:59:58.434Z,2.84
2017-01-05T11:01:08.349Z,3.21
2017-01-05T11:02:18.664Z,3.37
2017-01-05T11:03:28.933Z,3.52
2017-01-05T11:04:38.815Z,3.26
2017-01-05T11:05:48.786Z,3.06
2017-01-05T11:06:59.036Z,2.88
2017-01-05T11:08:08.987Z,2.89
2017-01-05T11:09:19.245Z,2.71
2017-01-05T11:10:29.211Z,2.66
2017-01-05T11:11:39.550Z,2.62
2017-01-05T11:12:49.404Z,2.39
2017-01-05T11:13:59.241Z,2.55
2017-01-05T11:15:09.136Z,2.52
2017-01-05T11:16:19.395Z,2.67
2017-01-05T11:17:29.243Z,2.84
2017-01-05T11:18:39.097Z,3.1
2017-01-05T11:19:49.409Z,3.19
2017-01-05T11:20:59.832Z,3.18
2017-01-05T11:22:10.111Z,3.34
2017-01-05T11:23:20.488Z,3.58
2017-01-05T11:24:29.972Z,3.44
2017-01-05T11:25:40.292Z,3.49
2017-01-05T11:26:50.531Z,3.58
2017-01-05T11:28:00.485Z,3.76
2017-01-05T11:29:09.935Z,3.67
2017-01-05T11:30:19.470Z,3.39
2017-01-05T11:31:29.362Z,3.18
2017-01-05T11:32:39.671Z,3.21
2017-01-05T11:33:50.051Z,3.28
2017-01-05T11:35:00.068Z,3.29
2017-01-05T11:36:10.322Z,3.21
2017-01-05T11:37:20.191Z,3.04
2017-01-05T11:38:30.441Z,2.77
2017-01-05T11:39:40.350Z,2.49
2017-01-05T11:40:49.912Z,2.36
2017-01-05T11:42:00.201Z,2.49
2017-01-05T11:43:09.653Z,2.59
2017-01-05T11:44:19.965Z,2.7
2017-01-05T11:45:29.873Z,2.77
2017-01-05T11:46:39.360Z,2.85
2017-01-05T11:47:49.245Z,2.79
2017-01-05T11:48:59.096Z,2.69
2017-01-05T11:50:08.558Z,2.33
2017-01-05T11:51:18.944Z,2.05
2017-01-05T11:52:28.827Z,1.79
2017-01-05T11:53:39.068Z,1.85
2017-01-05T11:54:49.329Z,1.79
2017-01-05T11:55:59.655Z,1.54
2017-01-05T11:57:09.163Z,1.25
2017-01-05T11:58:19.507Z,0.96
2017-01-05T11:59:30.001Z,0.79
2017-01-05T12:00:39.868Z,0.63
2017-01-05T12:01:50.129Z,0.53
2017-01-05T12:03:00.474Z,0.35
2017-01-05T12:04:10.632Z,0.43
2017-01-05T12:05:20.124Z,0.58
2017-01-05T12:06:29.619Z,0.57
2017-01-05T12:07:39.941Z,0.56
2017-01-05T12:08:49.812Z,0.49
2017-01-05T12:09:59.670Z,0.24
2017-01-05T12:11:09.555Z,0.17
2017-01-05T12:12:19.828Z,0.12
2017-01-05T12:13:29.733Z,0.09
2017-01-05T12:14:39.589Z,0.09
2017-01-05T12:15:49.832Z,0.05
2017-01-05T12:16:59.707Z,0.06
2017-01-05T12:18:09.955Z,0.05
2017-01-05T12:19:20.219Z,0.05
2017-01-05T12:20:30.507Z,0.02
2017-01-05T12:21:39.950Z,-0.07
2017-01-05T12:22:49.809Z,-0.15
2017-01-05T12:24:00.051Z,-0.2
2017-01-05T12:25:10.382Z,-0.19
2017-01-05T12:26:20.663Z,-0.19
2017-01-05T12:27:30.909Z,-0.22
2017-01-05T12:28:41.168Z,-0.28
2017-01-05T12:29:51.050Z,-0.33
2017-01-05T12:31:01.284Z,-0.52
2017-01-05T12:32:10.738Z,-0.51
2017-01-05T12:33:21.031Z,-0.64
2017-01-05T12:34:31.268Z,-0.71
2017-01-05T12:35:41.143Z,-0.81
2017-01-05T12:36:51.394Z,-0.89
2017-01-05T12:38:01.641Z,-0.91
2017-01-05T12:39:12.123Z,-0.87
2017-01-05T12:40:22.450Z,-0.91
2017-01-05T12:41:32.855Z,-0.85
2017-01-05T12:42:42.794Z,-0.91
2017-01-05T12:43:53.042Z,-0.89
2017-01-05T12:45:03.010Z,-0.89
2017-01-05T12:46:13.350Z,-0.91
2017-01-05T12:47:23.644Z,-0.96
2017-01-05T12:48:33.494Z,-1.03
2017-01-05T12:49:43.877Z,-1.02
2017-01-05T12:50:54.117Z,-0.96
2017-01-05T12:52:03.569Z,-0.95
2017-01-05T12:53:13.809Z,-0.94
2017-01-05T12:54:23.677Z,-0.87
2017-01-05T12:55:33.962Z,-0.85
2017-01-05T12:56:43.426Z,-0.92
2017-01-05T12:57:52.869Z,-1.06
2017-01-05T12:59:02.695Z,-1.09
2017-01-05T13:00:12.934Z,-1.07
2017-01-05T13:01:23.197Z,-1.14
2017-01-05T13:02:33.067Z,-1.16
2017-01-05T13:03:43.498Z,-1.26
2017-01-05T13:04:53.780Z,-1.26
2017-01-05T13:06:03.637Z,-1.23
2017-01-05T13:07:13.978Z,-1.25
2017-01-05T13:08:24.297Z,-1.28
2017-01-05T13:09:34.158Z,-1.28
2017-01-05T13:10:44.440Z,-1.28
2017-01-05T13:11:54.328Z,-1.26
2017-01-05T13:13:04.193Z,-1.26
2017-01-05T13:14:14.484Z,-1.29
2017-01-05T13:15:23.124Z,-1.26
2017-01-05T13:16:33.411Z,-1.33
2017-01-05T13:17:43.796Z,-1.31
2017-01-05T13:18:54.033Z,-1.32
2017-01-05T13:20:04.271Z,-1.36
2017-01-05T13:21:14.519Z,-1.43
2017-01-05T13:22:24.747Z,-1.54
2017-01-05T13:23:34.617Z,-1.46
2017-01-05T13:24:44.909Z,-1.43
2017-01-05T13:25:54.914Z,-1.53
2017-01-05T13:27:04.349Z,-1.6
2017-01-05T13:28:14.703Z,-1.52
2017-01-05T13:29:25.003Z,-1.47
2017-01-05T13:30:35.439Z,-1.5
2017-01-05T13:31:45.676Z,-1.62
2017-01-05T13:32:55.517Z,-1.58
2017-01-05T13:34:05.522Z,-1.61
2017-01-05T13:35:15.813Z,-1.54
2017-01-05T13:36:25.660Z,-1.53
2017-01-05T13:37:35.086Z,-1.52
2017-01-05T13:38:45.382Z,-1.5
2017-01-05T13:39:55.225Z,-1.39
2017-01-05T13:41:05.478Z,-1.47
2017-01-05T13:42:15.740Z,-1.46
2017-01-05T13:43:25.714Z,-1.58
2017-01-05T13:44:35.573Z,-1.5
2017-01-05T13:45:45.842Z,-1.5
2017-01-05T13:46:56.096Z,-1.58
2017-01-05T13:48:06.440Z,-1.6
2017-01-05T13:49:16.304Z,-1.71
2017-01-05T13:50:26.584Z,-1.65
2017-01-05T13:51:36.470Z,-1.75
2017-01-05T13:52:46.788Z,-1.79
2017-01-05T13:53:57.061Z,-1.82
2017-01-05T13:55:06.898Z,-1.8
2017-01-05T13:56:16.754Z,-1.83
2017-01-05T13:57:26.641Z,-1.82
2017-01-05T13:58:36.876Z,-1.72
2017-01-05T13:59:46.791Z,-1.71
2017-01-05T14:00:56.651Z,-1.68
2017-01-05T14:02:06.616Z,-1.7
2017-01-05T14:03:16.518Z,-1.68
2017-01-05T14:04:26.770Z,-1.68
2017-01-05T14:05:36.659Z,-1.65
2017-01-05T14:06:47.020Z,-1.67
2017-01-05T14:07:57.394Z,-1.76
2017-01-05T14:09:07.252Z,-1.7
2017-01-05T14:10:17.096Z,-1.76
2017-01-05T14:11:27.346Z,-1.71
2017-01-05T14:12:37.237Z,-1.68
2017-01-05T14:13:47.272Z,-1.68
2017-01-05T14:14:57.557Z,-1.62
2017-01-05T14:16:07.821Z,-1.61
2017-01-05T14:17:18.104Z,-1.72
2017-01-05T14:18:28.473Z,-1.68
2017-01-05T14:19:38.822Z,-1.7
2017-01-05T14:20:48.275Z,-1.67
2017-01-05T14:21:58.230Z,-1.75
2017-01-05T14:23:08.624Z,-1.72
2017-01-05T14:24:18.915Z,-1.71
2017-01-05T14:25:29.277Z,-1.7
2017-01-05T14:26:39.738Z,-1.65
2017-01-05T14:27:50.159Z,-1.71
2017-01-05T14:29:00.644Z,-1.75
2017-01-05T14:30:10.587Z,-1.8
2017-01-05T14:31:20.969Z,-1.8
2017-01-05T14:32:31.160Z,-1.9
2017-01-05T14:33:41.257Z,-1.89
2017-01-05T14:34:51.747Z,-2
2017-01-05T14:36:01.666Z,-1.89
2017-01-05T14:37:12.084Z,-1.96
2017-01-05T14:38:22.104Z,-2.04
2017-01-05T14:39:31.939Z,-2.03
2017-01-05T14:40:42.204Z,-2.04
2017-01-05T14:41:52.623Z,-2.15
2017-01-05T14:43:03.001Z,-2.25
2017-01-05T14:44:12.900Z,-2.28
2017-01-05T14:45:23.193Z,-2.25
2017-01-05T14:46:33.139Z,-2.14
2017-01-05T14:47:43.446Z,-2.21
2017-01-05T14:48:53.683Z,-2.18
2017-01-05T14:50:04.135Z,-2.18
2017-01-05T14:51:14.068Z,-2.15
2017-01-05T14:52:24.434Z,-2.14
2017-01-05T14:53:34.841Z,-2.22
2017-01-05T14:54:45.205Z,-2.25
2017-01-05T14:55:55.546Z,-2.21
2017-01-05T14:57:05.884Z,-2.25
2017-01-05T14:58:16.377Z,-2.21
2017-01-05T14:59:26.242Z,-2.26
2017-01-05T15:00:35.762Z,-2.24
2017-01-05T15:01:45.817Z,-2.25
2017-01-05T15:02:56.191Z,-2.25
2017-01-05T15:04:05.293Z,-2.28
2017-01-05T15:05:15.224Z,-2.21
2017-01-05T15:06:25.544Z,-2.28
2017-01-05T15:07:35.932Z,-2.42
2017-01-05T15:08:46.320Z,-2.36
2017-01-05T15:09:56.249Z,-2.42
2017-01-05T15:11:05.642Z,-2.44